HGLO2: Hugo Lake

Data processed at Sun Aug 09 2020 23:31


All information presented herein is the property of the government of the United States of America and may be revised or deleted at any time without prior notice.
Dissemination of this information without the expressed written consent of the Public Affairs Office, Tulsa District U.S. Army Corps of Engineers is strictly prohibited.
These data are gathered electronically and, as presented, have not undergone any form of quality control. These data are not guaranteed to be valid or correct.
Go to home page.
Go to station list.
Go to home page.

Upstream stations:

Downstream station:
Previous Day
Next Day
Current Day
    
SHEF ID:       HGLO2     Hugo Lake
STATION TYPE:  RESERVOIR
Flood Pool:  Bottom =   404.50, Top =   437.50

               PRECIP ELEVATION   STORAGE   TW-ELEV    INFLOW   RELEASE  AIR-TEMP  WIND-DIRWIND-SPEED REL-HUMID SOLAR-RAD   VOLTAGE  BAT-LOAD
                   in        ft     ac-ft        ft       cfs       cfs         F       deg       mph         %      W/m2      volt      volt
              Ccp-Rev   Ccp-Rev   Ccp-Rev   Ccp-Rev  Rev-Regi  Rev-Regi   Ccp-Rev   Ccp-Rev   Ccp-Rev   Ccp-Rev   Ccp-Rev   Ccp-Rev   Ccp-Rev
(US/Central)
08/09 00:00      0.00    403.54    131672      ----        61       297     80.38    163.40      6.80     86.01      0.00     13.57     13.21
08/09 01:00      0.00    403.53    131555      ----        78       297     79.63    159.00      6.20     86.50      0.00     13.57     13.21
08/09 02:00      0.00    403.53    131555      ----        95       297     79.05    161.30      7.10     87.64      0.00     13.57     13.21
08/09 03:00      0.00    403.54    131672      ----       182       297     78.82    163.60      6.30     87.42      0.00     13.57     13.21
08/09 04:00      0.00    403.53    131555      ----       184       297     78.15    160.20      4.90     88.46      0.00     13.52     13.21
08/09 05:00      0.00    403.54    131672      ----       162       297     77.34    163.70      5.00     90.71      0.00     13.57     13.21
08/09 06:00      0.00    403.54    131672      ----       145       297     76.73    157.90      4.80     92.38      0.00     13.57     13.21
08/09 07:00      0.00    403.54    131672      ----       134       297     76.08    153.10      5.20     94.38      0.00     13.57     13.21
08/09 08:00      0.00    403.53    131555      ----        31       297     76.69    158.60      4.80     93.94     74.40     13.57     13.21
08/09 09:00      0.00    403.53    131555      ----        13       297     80.13    178.60      5.60     88.18    249.20     13.56     13.21
08/09 10:00      0.00    403.52    131438      ----         7       297     83.88    202.80      5.60     79.62    440.10     13.56     13.21
08/09 11:00      0.00    403.51    131320      ----         7       297     87.21    208.30      7.30     69.71    614.90     13.56     13.21
08/09 12:00      0.00    403.51    131320      ----         0       297     90.12    204.30      7.60     61.28    754.00     13.56     13.21
08/09 13:00      0.00    403.51    131320      ----         0       297     91.85    192.70      7.50     58.76    836.60     13.57     13.21
08/09 14:00      0.00    403.51    131320      ----         0       297     92.95    193.70     10.10     54.55    874.40     13.57     13.21
08/09 15:00      0.00    403.50    131203      ----         0       296     93.92    198.20      9.50     51.93    847.90     13.57     13.21
08/09 16:00      0.00    403.50    131203      ----         0       296     94.44    188.50     10.00     49.75    769.80     13.57     13.21
08/09 17:00      0.00    403.50    131203      ----         0       296     94.62    178.70      9.80     48.52    641.30     13.57     13.21
08/09 18:00      0.00    403.49    131086      ----         0       296     93.97    169.60     11.10     48.52    461.40     13.57     13.21
08/09 19:00      0.00    403.48    130968      ----         0       296     92.86    170.10      9.70     51.43    266.10     13.57     13.21
08/09 20:00      0.00    403.49    131086      ----         0       296     90.75    165.10      8.00     57.86     76.60     13.58     13.21
08/09 21:00      0.00    403.50    131203      ----         0       296     87.33    164.10      6.60     68.65      0.00     13.58     13.21
08/09 22:00      0.00    403.49    131086      ----         0       296     84.81    163.00      7.20     76.37      0.00     13.49     13.21
08/09 23:00      ----      ----      ----      ----      ----      ----      ----      ----      ----      ----      ----      ----      ----